createdAt,value
2019-02-23T00:01:48.034Z,17.83
2019-02-23T00:04:18.236Z,18.37
2019-02-23T00:06:48.690Z,17.43
2019-02-23T00:09:19.371Z,17.83
2019-02-23T00:12:04.578Z,19.03
2019-02-23T00:14:49.800Z,18.00
2019-02-23T00:17:22.174Z,17.77
2019-02-23T00:20:24.365Z,17.20
2019-02-23T00:22:55.984Z,18.60
2019-02-23T00:25:26.191Z,17.53
2019-02-23T00:27:57.668Z,17.10
2019-02-23T00:30:35.764Z,18.50
2019-02-23T00:33:06.146Z,18.70
2019-02-23T00:35:36.465Z,17.50
2019-02-23T00:38:07.729Z,17.97
2019-02-23T00:40:37.922Z,19.23
2019-02-23T00:43:08.112Z,18.17
2019-02-23T00:45:38.358Z,18.77
2019-02-23T00:48:08.807Z,17.50
2019-02-23T00:50:59.988Z,18.40
2019-02-23T00:53:51.013Z,17.77
2019-02-23T00:56:21.218Z,17.47
2019-02-23T00:58:51.400Z,15.87
2019-02-23T01:01:21.620Z,18.20
2019-02-23T01:03:51.809Z,18.63
2019-02-23T01:06:48.617Z,18.53
2019-02-23T01:09:18.818Z,15.70
2019-02-23T01:11:49.013Z,17.03
2019-02-23T01:14:19.209Z,17.53
2019-02-23T01:16:55.649Z,17.57
2019-02-23T01:19:25.853Z,17.07
2019-02-23T01:21:56.059Z,18.43
2019-02-23T01:24:26.247Z,16.93
2019-02-23T01:26:57.389Z,18.97
2019-02-23T01:29:39.632Z,17.90
2019-02-23T01:32:17.657Z,17.07
2019-02-23T01:35:06.722Z,18.53
2019-02-23T01:37:36.932Z,19.03
2019-02-23T01:40:09.149Z,18.73
2019-02-23T01:42:39.365Z,19.80
2019-02-23T01:45:09.828Z,18.73
2019-02-23T01:47:50.446Z,20.67
2019-02-23T01:50:26.664Z,19.47
2019-02-23T01:52:58.780Z,18.60
2019-02-23T01:55:32.031Z,21.33
2019-02-23T01:58:02.260Z,20.67
2019-02-23T02:00:32.899Z,20.20
2019-02-23T02:03:03.179Z,20.27
2019-02-23T02:05:33.440Z,20.07
2019-02-23T02:08:03.720Z,19.87
2019-02-23T02:10:33.918Z,20.40
2019-02-23T02:13:14.129Z,20.07
2019-02-23T02:15:44.373Z,18.60
2019-02-23T02:18:14.561Z,20.23
2019-02-23T02:20:46.670Z,20.07
2019-02-23T02:23:16.871Z,20.50
2019-02-23T02:25:47.046Z,19.80
2019-02-23T02:28:18.323Z,20.33
2019-02-23T02:30:54.286Z,19.27
2019-02-23T02:33:24.614Z,19.57
2019-02-23T02:36:07.845Z,19.23
2019-02-23T02:38:58.678Z,19.63
2019-02-23T02:41:28.855Z,20.33
2019-02-23T02:43:59.058Z,19.07
2019-02-23T02:46:29.240Z,20.23
2019-02-23T02:49:02.122Z,19.93
2019-02-23T02:51:36.533Z,19.57
2019-02-23T02:54:06.733Z,18.33
2019-02-23T02:56:36.927Z,19.27
2019-02-23T02:59:07.117Z,17.93
2019-02-23T03:01:37.336Z,20.23
2019-02-23T03:04:09.473Z,17.33
2019-02-23T03:06:39.681Z,18.23
2019-02-23T03:09:28.272Z,17.90
2019-02-23T03:11:58.438Z,18.17
2019-02-23T03:14:28.663Z,18.37
2019-02-23T03:16:58.863Z,18.57
2019-02-23T03:19:29.118Z,17.53
2019-02-23T03:21:59.307Z,17.43
2019-02-23T03:24:38.367Z,17.53
2019-02-23T03:27:09.756Z,17.40
2019-02-23T03:29:46.714Z,19.67
2019-02-23T03:32:16.933Z,17.70
2019-02-23T03:34:49.107Z,17.80
2019-02-23T03:37:19.314Z,16.70
2019-02-23T03:39:49.489Z,16.90
2019-02-23T03:42:19.774Z,18.53
2019-02-23T03:44:49.953Z,18.23
2019-02-23T03:47:20.167Z,16.97
2019-02-23T03:49:50.345Z,17.10
2019-02-23T03:52:27.444Z,17.83
2019-02-23T03:55:03.535Z,17.27
2019-02-23T03:57:33.725Z,16.27
2019-02-23T04:00:13.824Z,18.57
2019-02-23T04:02:44.021Z,18.60
2019-02-23T04:05:14.222Z,17.83
2019-02-23T04:07:44.442Z,17.37
2019-02-23T04:10:34.226Z,17.00
2019-02-23T04:13:27.320Z,17.83
2019-02-23T04:15:58.531Z,17.47
2019-02-23T04:18:28.726Z,17.80
2019-02-23T04:21:01.998Z,18.10
2019-02-23T04:23:31.772Z,18.00
2019-02-23T04:26:01.962Z,16.17
2019-02-23T04:28:39.851Z,16.90
2019-02-23T04:31:10.048Z,17.90
2019-02-23T04:33:40.309Z,17.60
2019-02-23T04:36:15.621Z,18.60
2019-02-23T04:38:45.905Z,15.63
2019-02-23T04:41:23.845Z,15.03
2019-02-23T04:43:54.066Z,16.03
2019-02-23T04:46:24.279Z,16.57
2019-02-23T04:48:54.477Z,14.47
2019-02-23T04:51:24.688Z,15.33
2019-02-23T04:53:54.858Z,14.77
2019-02-23T04:56:25.069Z,15.57
2019-02-23T04:58:55.250Z,15.10
2019-02-23T05:01:25.439Z,15.20
2019-02-23T05:03:55.631Z,14.63
2019-02-23T05:09:49.959Z,14.87
2019-02-23T05:12:20.172Z,14.17
2019-02-23T05:15:02.793Z,13.53
2019-02-23T05:18:00.301Z,13.77
2019-02-23T05:20:44.852Z,14.17
2019-02-23T05:23:21.650Z,13.90
2019-02-23T05:25:51.861Z,14.70
2019-02-23T05:28:33.387Z,14.10
2019-02-23T05:31:28.523Z,13.53
2019-02-23T05:33:58.702Z,13.47
2019-02-23T05:36:28.899Z,14.07
2019-02-23T05:39:10.613Z,13.70
2019-02-23T05:41:40.812Z,14.23
2019-02-23T05:44:11.076Z,14.33
2019-02-23T05:46:41.277Z,14.27
2019-02-23T05:49:12.550Z,13.53
2019-02-23T05:51:56.155Z,14.30
2019-02-23T05:54:30.676Z,14.47
2019-02-23T05:57:45.563Z,14.60
2019-02-23T06:00:16.312Z,14.57
2019-02-23T06:02:46.515Z,14.00
2019-02-23T06:05:16.706Z,14.63
2019-02-23T06:07:47.834Z,13.80
2019-02-23T06:10:18.028Z,14.57
2019-02-23T06:12:48.315Z,14.80
2019-02-23T06:15:25.430Z,14.80
2019-02-23T06:17:55.638Z,14.47
2019-02-23T06:20:25.827Z,14.37
2019-02-23T06:23:02.729Z,14.70
2019-02-23T06:25:40.964Z,14.93
2019-02-23T06:28:11.158Z,14.37
2019-02-23T06:30:41.417Z,15.30
2019-02-23T06:33:12.693Z,14.73
2019-02-23T06:35:42.867Z,15.40
2019-02-23T06:38:13.077Z,15.53
2019-02-23T06:40:43.281Z,15.37
2019-02-23T06:43:36.306Z,15.10
2019-02-23T06:46:06.484Z,15.53
2019-02-23T06:48:36.692Z,14.77
2019-02-23T06:51:10.744Z,14.40
2019-02-23T06:53:40.937Z,14.43
2019-02-23T06:56:12.089Z,15.40
2019-02-23T06:58:42.288Z,14.70
2019-02-23T07:01:16.166Z,14.73
2019-02-23T07:03:54.255Z,14.90
2019-02-23T07:06:24.454Z,14.90
2019-02-23T07:08:54.663Z,14.70
2019-02-23T07:11:34.487Z,14.53
2019-02-23T07:14:11.932Z,14.70
2019-02-23T07:16:42.312Z,14.77
2019-02-23T07:19:12.532Z,14.83
2019-02-23T07:21:42.711Z,15.37
2019-02-23T07:24:15.990Z,14.13
2019-02-23T07:26:46.175Z,14.43
2019-02-23T07:29:16.461Z,15.80
2019-02-23T07:31:53.465Z,15.73
2019-02-23T07:34:32.766Z,13.77
2019-02-23T07:37:02.963Z,13.10
2019-02-23T07:39:34.214Z,14.40
2019-02-23T07:42:05.402Z,13.90
2019-02-23T07:44:42.452Z,13.50
2019-02-23T07:47:14.628Z,14.67
2019-02-23T07:49:57.045Z,13.60
2019-02-23T07:52:30.523Z,14.77
2019-02-23T07:55:01.772Z,14.07
2019-02-23T07:57:48.096Z,13.90
2019-02-23T08:00:23.958Z,13.57
2019-02-23T08:03:06.517Z,13.23
2019-02-23T08:05:59.244Z,13.47
2019-02-23T08:08:31.356Z,13.13
2019-02-23T08:11:01.572Z,12.33
2019-02-23T08:16:40.249Z,12.27
2019-02-23T08:19:22.790Z,12.17
2019-02-23T08:21:57.095Z,11.83
2019-02-23T08:24:27.282Z,12.07
2019-02-23T08:27:02.830Z,12.33
2019-02-23T08:29:33.047Z,12.20
2019-02-23T08:32:03.248Z,11.80
2019-02-23T08:34:33.450Z,12.37
2019-02-23T08:37:11.021Z,10.83
2019-02-23T08:39:48.986Z,12.23
2019-02-23T08:42:22.198Z,12.67
2019-02-23T08:44:56.349Z,12.20
2019-02-23T08:47:50.281Z,11.70
2019-02-23T08:50:27.196Z,11.83
2019-02-23T08:53:12.326Z,11.90
2019-02-23T08:55:42.516Z,12.20
2019-02-23T08:59:08.726Z,11.37
2019-02-23T09:01:40.836Z,12.47
2019-02-23T09:04:16.903Z,12.33
2019-02-23T09:06:47.100Z,11.30
2019-02-23T09:09:23.665Z,11.53
2019-02-23T09:11:53.924Z,12.57
2019-02-23T09:14:27.578Z,12.37
2019-02-23T09:16:57.782Z,11.30
2019-02-23T09:19:48.778Z,11.83
2019-02-23T09:22:30.747Z,11.87
2019-02-23T09:25:00.936Z,12.10
2019-02-23T09:27:31.153Z,11.53
2019-02-23T09:30:04.423Z,11.10
2019-02-23T09:32:37.615Z,12.60
2019-02-23T09:35:23.939Z,11.17
2019-02-23T09:38:00.680Z,11.70
2019-02-23T09:40:51.898Z,10.53
2019-02-23T09:43:35.962Z,10.77
2019-02-23T09:46:06.175Z,10.93
2019-02-23T09:48:45.244Z,11.13
2019-02-23T09:51:15.455Z,11.40
2019-02-23T09:53:53.659Z,10.67
2019-02-23T09:56:24.046Z,9.57
2019-02-23T09:59:26.523Z,10.07
2019-02-23T10:02:14.854Z,9.23
2019-02-23T10:05:11.937Z,10.70
2019-02-23T10:10:52.010Z,9.90
2019-02-23T10:13:22.230Z,10.17
2019-02-23T10:15:54.323Z,10.17
2019-02-23T10:18:24.525Z,10.47
2019-02-23T10:20:54.717Z,10.87
2019-02-23T10:23:35.856Z,10.27
2019-02-23T10:26:06.087Z,10.13
2019-02-23T10:28:37.264Z,10.40
2019-02-23T10:31:09.501Z,10.73
2019-02-23T10:33:47.541Z,9.87
2019-02-23T10:36:17.489Z,9.87
2019-02-23T10:38:49.636Z,9.90
2019-02-23T10:41:26.050Z,10.23
2019-02-23T10:44:00.108Z,10.40
2019-02-23T10:46:36.459Z,10.17
2019-02-23T10:49:27.595Z,10.07
2019-02-23T10:52:04.802Z,9.60
2019-02-23T10:54:48.921Z,9.40
2019-02-23T10:57:32.450Z,9.93
2019-02-23T11:00:28.888Z,10.40
2019-02-23T11:03:20.860Z,9.27
2019-02-23T11:05:51.073Z,9.13
2019-02-23T11:08:21.276Z,8.57
2019-02-23T11:10:52.415Z,9.53
2019-02-23T11:13:24.585Z,10.10
2019-02-23T11:15:54.943Z,9.40
2019-02-23T11:18:25.124Z,9.20
2019-02-23T11:20:55.340Z,8.80
2019-02-23T11:23:43.753Z,9.13
2019-02-23T11:26:09.496Z,8.43
2019-02-23T11:28:39.686Z,8.60
2019-02-23T11:31:09.958Z,6.83
2019-02-23T11:33:40.157Z,7.60
2019-02-23T11:36:10.359Z,7.00
2019-02-23T11:38:46.535Z,6.27
2019-02-23T11:41:16.834Z,6.47
2019-02-23T11:43:47.036Z,6.23
2019-02-23T11:46:17.243Z,6.80
2019-02-23T11:48:49.365Z,6.30
2019-02-23T11:51:24.165Z,6.53
2019-02-23T11:53:55.370Z,6.80
2019-02-23T11:56:25.640Z,6.63
2019-02-23T11:59:09.834Z,7.27
2019-02-23T12:01:45.886Z,7.67
2019-02-23T12:04:40.181Z,7.67
2019-02-23T12:07:36.840Z,6.90
2019-02-23T12:10:10.089Z,7.43
2019-02-23T12:12:40.282Z,8.23
2019-02-23T12:15:10.869Z,7.40
2019-02-23T12:17:41.050Z,7.43
2019-02-23T12:20:11.931Z,8.27
2019-02-23T12:22:42.178Z,7.97
2019-02-23T12:25:15.711Z,8.13
2019-02-23T12:27:44.303Z,7.13
2019-02-23T12:30:14.530Z,6.50
2019-02-23T12:32:44.784Z,7.13
2019-02-23T12:35:16.101Z,7.23
2019-02-23T12:37:46.288Z,7.70
2019-02-23T12:40:16.501Z,7.33
2019-02-23T12:42:46.710Z,7.20
2019-02-23T12:45:24.144Z,7.87
2019-02-23T12:47:54.324Z,7.30
2019-02-23T12:50:34.301Z,7.47
2019-02-23T12:53:04.630Z,6.93
2019-02-23T12:55:35.916Z,5.83
2019-02-23T12:58:58.191Z,5.80
2019-02-23T13:01:29.303Z,6.20
2019-02-23T13:03:59.481Z,5.37
2019-02-23T13:06:29.703Z,5.50
2019-02-23T13:09:17.250Z,5.80
2019-02-23T13:12:12.899Z,5.67
2019-02-23T13:15:01.218Z,6.00
2019-02-23T13:17:54.649Z,5.57
2019-02-23T13:21:05.797Z,5.10
2019-02-23T13:24:01.557Z,5.37
2019-02-23T13:26:54.686Z,6.07
2019-02-23T13:29:48.475Z,6.00
2019-02-23T13:32:59.360Z,5.60
2019-02-23T13:35:40.650Z,5.50
2019-02-23T13:38:33.337Z,5.57
2019-02-23T13:41:26.026Z,6.00
2019-02-23T13:44:28.221Z,5.87
2019-02-23T13:47:19.750Z,5.73
2019-02-23T13:50:32.668Z,5.77
2019-02-23T13:53:06.113Z,6.00
2019-02-23T13:55:47.746Z,5.20
2019-02-23T13:58:40.899Z,6.27
2019-02-23T14:01:24.314Z,6.10
2019-02-23T14:04:08.379Z,5.37
2019-02-23T14:06:44.281Z,5.27
2019-02-23T14:09:43.240Z,5.30
2019-02-23T14:12:27.965Z,5.83
2019-02-23T14:15:23.574Z,6.47
2019-02-23T14:18:18.092Z,5.47
2019-02-23T14:21:13.877Z,5.40
2019-02-23T14:23:56.245Z,5.60
2019-02-23T14:26:44.292Z,4.93
2019-02-23T14:29:44.472Z,5.03
2019-02-23T14:32:33.026Z,5.97
2019-02-23T14:35:11.338Z,5.23
2019-02-23T14:38:02.581Z,5.37
2019-02-23T14:40:50.852Z,5.43
2019-02-23T14:43:45.512Z,5.20
2019-02-23T14:46:42.120Z,5.20
2019-02-23T14:49:28.918Z,4.93
2019-02-23T14:52:14.560Z,5.30
2019-02-23T14:54:48.801Z,5.17
2019-02-23T14:57:37.027Z,5.03
2019-02-23T15:00:26.879Z,5.10
2019-02-23T15:03:02.187Z,4.90
2019-02-23T15:05:37.540Z,4.67
2019-02-23T15:08:45.776Z,5.37
2019-02-23T15:11:27.790Z,5.03
2019-02-23T15:14:32.754Z,5.53
2019-02-23T15:17:24.035Z,5.30
2019-02-23T15:20:16.982Z,5.27
2019-02-23T15:23:28.362Z,5.97
2019-02-23T15:26:22.311Z,5.67
2019-02-23T15:29:08.975Z,5.63
2019-02-23T15:31:59.869Z,5.40
2019-02-23T15:35:01.199Z,5.37
2019-02-23T15:37:38.350Z,5.67
2019-02-23T15:40:11.772Z,5.43
2019-02-23T15:42:46.128Z,5.20
2019-02-23T15:45:29.386Z,5.80
2019-02-23T15:48:27.050Z,5.13
2019-02-23T15:51:07.075Z,5.37
2019-02-23T15:53:38.198Z,5.80
2019-02-23T15:56:09.422Z,5.33
2019-02-23T15:58:40.593Z,5.47
2019-02-23T16:01:12.726Z,5.50
2019-02-23T16:03:42.932Z,6.47
2019-02-23T16:06:13.241Z,5.90
2019-02-23T16:08:43.439Z,5.70
2019-02-23T16:11:13.625Z,6.47
2019-02-23T16:13:48.144Z,5.50
2019-02-23T16:16:47.454Z,7.23
2019-02-23T16:19:19.325Z,6.00
2019-02-23T16:21:52.608Z,7.50
2019-02-23T16:24:21.502Z,9.07
2019-02-23T16:26:52.786Z,8.03
2019-02-23T16:29:27.362Z,9.20
2019-02-23T16:32:10.670Z,9.03
2019-02-23T16:34:40.891Z,10.50
2019-02-23T16:37:11.110Z,6.13
2019-02-23T16:39:49.614Z,6.97
2019-02-23T16:42:19.823Z,6.97
2019-02-23T16:44:51.987Z,7.47
2019-02-23T16:47:37.450Z,8.23
2019-02-23T16:50:09.522Z,14.80
2019-02-23T16:52:51.784Z,12.33
2019-02-23T16:55:22.032Z,10.37
2019-02-23T16:58:16.470Z,8.77
2019-02-23T17:00:47.731Z,8.57
2019-02-23T17:03:17.913Z,12.40
2019-02-23T17:05:48.162Z,12.53
2019-02-23T17:08:27.298Z,9.87
2019-02-23T17:10:58.665Z,8.30
2019-02-23T17:13:28.960Z,6.53
2019-02-23T17:15:59.175Z,7.47
2019-02-23T17:18:29.374Z,7.13
2019-02-23T17:21:04.710Z,7.50
2019-02-23T17:23:35.825Z,6.53
2019-02-23T17:26:06.060Z,7.90
2019-02-23T17:28:37.171Z,8.43
2019-02-23T17:31:07.445Z,8.30
2019-02-23T17:33:38.652Z,8.80
2019-02-23T17:36:15.274Z,8.00
2019-02-23T17:38:57.516Z,7.57
2019-02-23T17:41:27.890Z,6.87
2019-02-23T17:44:08.517Z,7.03
2019-02-23T17:46:38.794Z,6.63
2019-02-23T17:49:08.982Z,10.17
2019-02-23T17:51:39.190Z,11.10
2019-02-23T17:54:33.603Z,17.40
2019-02-23T17:57:04.767Z,38.20
2019-02-23T17:59:38.010Z,24.23
2019-02-23T18:02:09.226Z,13.77
2019-02-23T18:04:43.442Z,13.27
2019-02-23T18:07:14.660Z,13.80
2019-02-23T18:09:59.077Z,11.83
2019-02-23T18:12:37.646Z,7.63
2019-02-23T18:15:09.473Z,7.53
2019-02-23T18:17:39.870Z,6.40
2019-02-23T18:20:13.821Z,7.30
2019-02-23T18:22:44.038Z,7.20
2019-02-23T18:25:31.429Z,7.50
2019-02-23T18:28:01.639Z,7.83
2019-02-23T18:30:32.858Z,7.50
2019-02-23T18:33:03.073Z,7.63
2019-02-23T18:35:35.233Z,7.83
2019-02-23T18:38:09.644Z,7.00
2019-02-23T18:40:39.886Z,7.90
2019-02-23T18:43:12.040Z,8.40
2019-02-23T18:45:47.792Z,8.60
2019-02-23T18:48:18.145Z,8.20
2019-02-23T18:50:48.327Z,7.57
2019-02-23T18:53:19.509Z,8.67
2019-02-23T18:55:55.045Z,8.60
2019-02-23T18:58:27.385Z,8.07
2019-02-23T19:01:02.735Z,7.67
2019-02-23T19:03:48.293Z,7.83
2019-02-23T19:06:18.464Z,6.67
2019-02-23T19:08:48.673Z,7.03
2019-02-23T19:11:53.599Z,7.33
2019-02-23T19:14:32.048Z,6.83
2019-02-23T19:17:06.498Z,6.90
2019-02-23T19:19:36.789Z,7.30
2019-02-23T19:22:28.436Z,9.27
2019-02-23T19:24:58.628Z,11.90
2019-02-23T19:27:28.820Z,11.10
2019-02-23T19:30:06.854Z,11.37
2019-02-23T19:32:39.270Z,10.63
2019-02-23T19:35:24.307Z,8.83
2019-02-23T19:37:55.496Z,7.80
2019-02-23T19:40:27.670Z,8.10
2019-02-23T19:43:08.036Z,7.40
2019-02-23T19:45:44.502Z,6.80
2019-02-23T19:48:14.760Z,7.03
2019-02-23T19:51:00.277Z,7.07
2019-02-23T19:53:30.498Z,7.50
2019-02-23T19:56:00.658Z,6.90
2019-02-23T19:58:57.189Z,8.00
2019-02-23T20:01:28.331Z,8.07
2019-02-23T20:03:58.538Z,8.37
2019-02-23T20:06:28.736Z,8.67
2019-02-23T20:08:58.926Z,9.10
2019-02-23T20:11:40.100Z,9.00
2019-02-23T20:14:10.307Z,9.33
2019-02-23T20:16:42.444Z,9.67
2019-02-23T20:19:12.652Z,10.00
2019-02-23T20:21:42.864Z,8.83
2019-02-23T20:24:13.062Z,8.73
2019-02-23T20:26:55.908Z,9.03
2019-02-23T20:29:41.337Z,9.87
2019-02-23T20:32:30.006Z,10.17
2019-02-23T20:35:06.953Z,8.97
2019-02-23T20:37:47.379Z,9.33
2019-02-23T20:40:17.577Z,8.87
2019-02-23T20:42:47.753Z,9.17
2019-02-23T20:45:17.970Z,8.90
2019-02-23T20:47:48.234Z,9.00
2019-02-23T20:50:26.246Z,8.83
2019-02-23T20:53:02.738Z,8.57
2019-02-23T20:55:32.944Z,9.03
2019-02-23T20:58:25.346Z,9.00
2019-02-23T21:01:19.938Z,9.30
2019-02-23T21:03:50.299Z,8.73
2019-02-23T21:06:27.764Z,9.97
2019-02-23T21:09:08.145Z,8.87
2019-02-23T21:11:40.097Z,9.07
2019-02-23T21:14:17.317Z,11.70
2019-02-23T21:16:47.768Z,10.10
2019-02-23T21:19:18.009Z,8.97
2019-02-23T21:21:48.197Z,9.17
2019-02-23T21:24:18.397Z,9.50
2019-02-23T21:26:48.589Z,9.17
2019-02-23T21:29:18.775Z,9.37
2019-02-23T21:31:49.103Z,9.07
2019-02-23T21:34:19.273Z,9.60
2019-02-23T21:37:01.841Z,8.80
2019-02-23T21:39:32.056Z,8.93
2019-02-23T21:42:02.249Z,9.83
2019-02-23T21:45:06.781Z,10.27
2019-02-23T21:47:44.573Z,9.80
2019-02-23T21:50:15.108Z,9.63
2019-02-23T21:52:55.945Z,9.60
2019-02-23T21:55:27.943Z,10.17
2019-02-23T21:57:58.132Z,9.00
2019-02-23T22:00:29.138Z,9.93
2019-02-23T22:03:04.745Z,9.10
2019-02-23T22:05:39.539Z,9.50
2019-02-23T22:08:09.949Z,9.27
2019-02-23T22:10:40.219Z,8.87
2019-02-23T22:13:11.304Z,8.93
2019-02-23T22:16:00.654Z,9.27
2019-02-23T22:18:49.487Z,9.37
2019-02-23T22:21:19.669Z,8.40
2019-02-23T22:24:12.967Z,8.83
2019-02-23T22:27:00.520Z,9.50
2019-02-23T22:29:31.613Z,9.10
2019-02-23T22:32:04.985Z,9.17
2019-02-23T22:34:35.158Z,9.87
2019-02-23T22:37:33.599Z,9.27
2019-02-23T22:40:04.706Z,8.90
2019-02-23T22:42:34.925Z,17.40
2019-02-23T22:45:07.233Z,10.80
2019-02-23T22:47:37.425Z,9.70
2019-02-23T22:50:08.682Z,8.87
2019-02-23T22:52:51.104Z,9.63
2019-02-23T22:55:21.280Z,9.50
2019-02-23T22:57:51.495Z,8.70
2019-02-23T23:00:34.926Z,9.10
2019-02-23T23:03:06.725Z,9.00
2019-02-23T23:05:42.598Z,8.80
2019-02-23T23:08:13.061Z,9.03
2019-02-23T23:10:44.168Z,8.87
2019-02-23T23:13:14.356Z,8.27
2019-02-23T23:15:44.553Z,9.00
2019-02-23T23:18:32.848Z,9.13
2019-02-23T23:21:03.022Z,8.90
2019-02-23T23:23:33.229Z,9.70
2019-02-23T23:26:08.964Z,9.63
2019-02-23T23:28:39.154Z,9.33
2019-02-23T23:31:09.337Z,9.30
2019-02-23T23:34:13.971Z,9.40
2019-02-23T23:36:44.172Z,9.33
2019-02-23T23:39:33.333Z,9.37
2019-02-23T23:42:10.330Z,9.17
2019-02-23T23:44:46.759Z,9.50
2019-02-23T23:47:16.960Z,9.53
2019-02-23T23:49:47.156Z,9.57
2019-02-23T23:52:17.331Z,9.43
2019-02-23T23:55:25.505Z,9.70
2019-02-23T23:58:13.405Z,9.93
